createdAt,value
2022-08-12T00:00:20.085Z,62.20
2022-08-12T00:03:05.964Z,62.30
2022-08-12T00:06:03.889Z,62.40
2022-08-12T00:08:52.274Z,62.80
2022-08-12T00:11:39.246Z,62.70
2022-08-12T00:14:25.448Z,63.00
2022-08-12T00:17:11.527Z,63.10
2022-08-12T00:19:57.479Z,63.70
2022-08-12T00:22:43.179Z,63.90
2022-08-12T00:25:55.834Z,64.20
2022-08-12T00:28:36.910Z,65.20
2022-08-12T00:31:23.201Z,65.40
2022-08-12T00:34:09.062Z,66.20
2022-08-12T00:37:00.848Z,67.70
2022-08-12T00:39:51.182Z,67.90
2022-08-12T00:42:20.876Z,67.90
2022-08-12T00:44:50.707Z,69.00
2022-08-12T00:47:24.724Z,69.10
2022-08-12T00:49:55.339Z,70.10
2022-08-12T00:52:24.510Z,70.60
2022-08-12T00:54:57.103Z,70.90
2022-08-12T00:57:28.798Z,71.50
2022-08-12T00:59:59.878Z,72.10
2022-08-12T01:02:30.598Z,72.10
2022-08-12T01:05:18.071Z,72.60
2022-08-12T01:08:05.575Z,72.90
2022-08-12T01:11:09.247Z,72.90
2022-08-12T01:13:42.765Z,73.20
2022-08-12T01:16:12.163Z,73.60
2022-08-12T01:18:41.746Z,74.20
2022-08-12T01:21:16.599Z,74.30
2022-08-12T01:24:29.619Z,74.30
2022-08-12T01:26:54.945Z,73.90
2022-08-12T01:29:27.489Z,74.10
2022-08-12T01:32:09.025Z,74.20
2022-08-12T01:34:40.691Z,74.50
2022-08-12T01:37:10.890Z,74.70
2022-08-12T01:40:32.029Z,74.50
2022-08-12T01:42:40.666Z,74.40
2022-08-12T01:45:12.635Z,74.50
2022-08-12T01:47:56.313Z,74.40
2022-08-12T01:50:33.245Z,74.70
2022-08-12T01:53:06.650Z,74.80
2022-08-12T01:55:39.154Z,75.00
2022-08-12T01:58:26.274Z,75.60
2022-08-12T02:01:01.244Z,76.20
2022-08-12T02:04:12.205Z,76.50
2022-08-12T02:07:07.919Z,77.20
2022-08-12T02:10:51.255Z,77.20
2022-08-12T02:13:11.465Z,78.30
2022-08-12T02:15:50.328Z,78.40
2022-08-12T02:18:26.992Z,78.70
2022-08-12T02:21:04.914Z,78.80
2022-08-12T02:23:37.516Z,79.00
2022-08-12T02:26:10.290Z,79.10
2022-08-12T02:28:38.905Z,79.40
2022-08-12T02:31:11.279Z,79.70
2022-08-12T02:33:41.768Z,79.60
2022-08-12T02:36:09.945Z,79.80
2022-08-12T02:38:38.664Z,79.60
2022-08-12T02:41:08.167Z,80.00
2022-08-12T02:43:41.674Z,80.10
2022-08-12T02:46:15.102Z,80.30
2022-08-12T02:48:48.359Z,80.30
2022-08-12T02:51:20.463Z,80.60
2022-08-12T02:54:04.512Z,80.60
2022-08-12T02:56:38.108Z,80.60
2022-08-12T02:59:12.481Z,81.10
2022-08-12T03:01:48.443Z,81.10
2022-08-12T03:04:26.528Z,81.40
2022-08-12T03:07:03.102Z,81.50
2022-08-12T03:10:04.032Z,81.90
2022-08-12T03:12:26.475Z,82.30
2022-08-12T03:15:06.079Z,82.50
2022-08-12T03:17:44.257Z,82.80
2022-08-12T03:20:16.583Z,83.10
2022-08-12T03:22:46.233Z,83.20
2022-08-12T03:25:17.974Z,83.50
2022-08-12T03:27:51.645Z,83.60
2022-08-12T03:30:22.183Z,83.40
2022-08-12T03:32:53.923Z,83.70
2022-08-12T03:35:40.384Z,83.50
2022-08-12T03:38:16.445Z,83.60
2022-08-12T03:41:09.844Z,83.50
2022-08-12T03:44:06.964Z,83.80
2022-08-12T03:46:57.801Z,83.80
2022-08-12T03:49:45.415Z,84.10
2022-08-12T03:52:30.881Z,84.40
2022-08-12T03:55:16.303Z,84.70
2022-08-12T03:58:01.917Z,84.90
2022-08-12T04:00:31.855Z,84.80
2022-08-12T04:03:01.678Z,85.00
2022-08-12T04:05:54.498Z,85.50
2022-08-12T04:08:25.122Z,85.80
2022-08-12T04:11:11.481Z,86.50
2022-08-12T04:13:40.684Z,87.30
2022-08-12T04:16:13.436Z,87.60
2022-08-12T04:18:42.396Z,87.70
2022-08-12T04:21:12.457Z,87.80
2022-08-12T04:23:48.192Z,87.90
2022-08-12T04:26:16.556Z,88.20
2022-08-12T04:28:44.995Z,88.40
2022-08-12T04:31:14.244Z,88.50
2022-08-12T04:33:43.797Z,88.60
2022-08-12T04:36:15.556Z,88.80
2022-08-12T04:38:44.087Z,89.00
2022-08-12T04:41:12.342Z,89.60
2022-08-12T04:44:01.538Z,88.90
2022-08-12T04:46:33.521Z,89.60
2022-08-12T04:49:03.265Z,89.50
2022-08-12T04:51:33.260Z,89.50
2022-08-12T04:54:02.632Z,89.60
2022-08-12T04:56:35.637Z,90.00
2022-08-12T04:59:05.362Z,90.00
2022-08-12T05:01:33.873Z,90.00
2022-08-12T05:04:02.819Z,90.00
2022-08-12T05:06:33.047Z,89.90
2022-08-12T05:09:01.494Z,90.00
2022-08-12T05:11:30.206Z,90.00
2022-08-12T05:14:01.369Z,89.90
2022-08-12T05:16:34.111Z,89.90
2022-08-12T05:19:04.303Z,89.50
2022-08-12T05:21:35.242Z,89.30
2022-08-12T05:24:03.416Z,89.10
2022-08-12T05:26:31.311Z,88.80
2022-08-12T05:28:59.391Z,88.50
2022-08-12T05:31:42.409Z,88.40
2022-08-12T05:34:16.429Z,88.10
2022-08-12T05:36:45.715Z,88.10
2022-08-12T05:39:14.091Z,88.30
2022-08-12T05:41:42.404Z,88.30
2022-08-12T05:44:13.193Z,88.50
2022-08-12T05:46:41.781Z,89.00
2022-08-12T05:49:10.996Z,88.20
2022-08-12T05:51:41.705Z,88.30
2022-08-12T05:54:12.394Z,88.50
2022-08-12T05:56:41.267Z,88.20
2022-08-12T05:59:11.508Z,87.50
2022-08-12T06:02:10.591Z,87.20
2022-08-12T06:04:29.618Z,86.60
2022-08-12T06:06:57.929Z,85.60
2022-08-12T06:09:28.674Z,84.60
2022-08-12T06:12:05.831Z,83.70
2022-08-12T06:14:37.860Z,84.10
2022-08-12T06:17:08.990Z,83.70
2022-08-12T06:20:28.644Z,84.40
2022-08-12T06:22:26.709Z,83.70
2022-08-12T06:24:56.432Z,83.80
2022-08-12T06:27:24.351Z,83.50
2022-08-12T06:30:08.821Z,83.50
2022-08-12T06:32:51.815Z,82.20
2022-08-12T06:35:48.967Z,81.70
2022-08-12T06:38:17.718Z,81.40
2022-08-12T06:41:05.987Z,81.30
2022-08-12T06:44:05.696Z,81.00
2022-08-12T06:46:23.660Z,79.80
2022-08-12T06:48:57.479Z,79.50
2022-08-12T06:51:25.763Z,78.70
2022-08-12T06:53:56.157Z,78.00
2022-08-12T06:56:40.231Z,78.20
2022-08-12T06:59:15.728Z,78.00
2022-08-12T07:01:50.825Z,78.40
2022-08-12T07:04:36.280Z,77.30
2022-08-12T07:07:06.936Z,77.20
2022-08-12T07:10:05.261Z,76.60
2022-08-12T07:12:27.790Z,76.30
2022-08-12T07:14:57.190Z,75.50
2022-08-12T07:17:25.320Z,75.50
2022-08-12T07:19:54.054Z,75.30
2022-08-12T07:22:23.355Z,74.60
2022-08-12T07:25:12.524Z,74.50
2022-08-12T07:27:42.932Z,72.80
2022-08-12T07:30:12.015Z,72.80
2022-08-12T07:32:40.039Z,72.50
2022-08-12T07:35:09.136Z,71.80
2022-08-12T07:37:41.863Z,72.00
2022-08-12T07:40:12.256Z,72.00
2022-08-12T07:42:43.567Z,72.30
2022-08-12T07:45:12.527Z,71.40
2022-08-12T07:47:43.639Z,70.70
2022-08-12T07:50:12.872Z,70.20
2022-08-12T07:52:43.102Z,70.30
2022-08-12T07:55:12.484Z,70.00
2022-08-12T07:57:54.123Z,70.40
2022-08-12T08:00:22.705Z,69.10
2022-08-12T08:02:52.374Z,69.20
2022-08-12T08:05:20.751Z,68.50
2022-08-12T08:07:48.794Z,68.70
2022-08-12T08:10:17.053Z,67.90
2022-08-12T08:12:58.933Z,67.70
2022-08-12T08:15:58.842Z,67.90
2022-08-12T08:18:25.963Z,67.00
2022-08-12T08:20:55.300Z,66.20
2022-08-12T08:23:43.614Z,66.70
2022-08-12T08:26:16.410Z,66.20
2022-08-12T08:28:44.827Z,67.20
2022-08-12T08:31:14.945Z,65.50
2022-08-12T08:34:05.015Z,64.80
2022-08-12T08:36:31.069Z,64.80
2022-08-12T08:38:59.818Z,64.20
2022-08-12T08:42:16.101Z,64.10
2022-08-12T08:44:33.236Z,64.10
2022-08-12T08:47:03.398Z,63.90
2022-08-12T08:49:31.433Z,63.30
2022-08-12T08:51:59.774Z,63.20
2022-08-12T08:54:31.359Z,63.20
2022-08-12T08:56:59.281Z,63.80
2022-08-12T08:59:27.179Z,62.00
2022-08-12T09:01:56.255Z,62.60
2022-08-12T09:05:13.857Z,62.00
2022-08-12T09:07:17.161Z,61.70
2022-08-12T09:10:04.120Z,61.70
2022-08-12T09:15:38.853Z,60.40
2022-08-12T09:18:11.155Z,60.70
2022-08-12T09:20:42.307Z,60.80
2022-08-12T09:23:58.432Z,60.20
2022-08-12T09:26:04.135Z,60.40
2022-08-12T09:28:34.360Z,60.00
2022-08-12T09:32:04.089Z,59.80
2022-08-12T09:34:26.257Z,59.90
2022-08-12T09:37:00.164Z,60.00
2022-08-12T09:40:03.158Z,59.30
2022-08-12T09:42:55.429Z,59.70
2022-08-12T09:46:06.847Z,60.00
2022-08-12T09:48:20.214Z,60.10
2022-08-12T09:50:52.113Z,59.60
2022-08-12T09:53:36.187Z,59.80
2022-08-12T09:57:00.512Z,59.40
2022-08-12T09:59:00.319Z,58.60
2022-08-12T10:01:35.604Z,58.80
2022-08-12T10:04:19.629Z,59.20
2022-08-12T10:06:54.020Z,59.00
2022-08-12T10:09:28.882Z,59.00
2022-08-12T10:12:33.400Z,58.70
2022-08-12T10:15:01.577Z,58.30
2022-08-12T10:17:29.807Z,57.70
2022-08-12T10:19:59.657Z,57.00
2022-08-12T10:22:36.486Z,56.80
2022-08-12T10:26:34.729Z,56.90
2022-08-12T10:28:36.683Z,56.80
2022-08-12T10:31:16.615Z,57.20
2022-08-12T10:34:05.231Z,56.80
2022-08-12T10:36:40.056Z,56.50
2022-08-12T10:40:06.923Z,56.60
2022-08-12T10:42:29.597Z,55.90
2022-08-12T10:45:00.901Z,55.70
2022-08-12T10:48:14.949Z,55.80
2022-08-12T10:50:28.271Z,56.20
2022-08-12T10:53:01.744Z,56.30
2022-08-12T10:55:29.712Z,56.20
2022-08-12T10:58:14.974Z,55.90
2022-08-12T11:01:26.219Z,55.30
2022-08-12T11:04:26.565Z,55.60
2022-08-12T11:07:09.836Z,55.90
2022-08-12T11:09:18.730Z,55.30
2022-08-12T11:12:57.155Z,55.90
2022-08-12T11:14:59.254Z,54.60
2022-08-12T11:17:34.380Z,54.80
2022-08-12T11:20:15.116Z,54.20
2022-08-12T11:22:58.612Z,53.60
2022-08-12T11:25:56.259Z,52.90
2022-08-12T11:28:16.723Z,52.50
2022-08-12T11:30:46.805Z,51.30
2022-08-12T11:33:52.625Z,50.60
2022-08-12T11:36:14.899Z,50.20
2022-08-12T11:38:43.101Z,50.10
2022-08-12T11:41:20.688Z,49.80
2022-08-12T11:43:59.442Z,49.10
2022-08-12T11:46:43.201Z,48.30
2022-08-12T11:49:11.906Z,47.80
2022-08-12T11:51:59.734Z,47.60
2022-08-12T11:54:29.593Z,46.80
2022-08-12T11:56:59.526Z,45.60
2022-08-12T12:02:20.468Z,45.50
2022-08-12T12:04:52.596Z,44.30
2022-08-12T12:08:36.268Z,45.50
2022-08-12T12:10:12.113Z,44.60
2022-08-12T12:12:41.473Z,44.70
2022-08-12T12:15:24.837Z,43.80
2022-08-12T12:18:22.345Z,43.60
2022-08-12T12:21:01.306Z,43.20
2022-08-12T12:23:36.393Z,43.20
2022-08-12T12:26:06.832Z,42.80
2022-08-12T12:28:37.173Z,42.40
2022-08-12T12:31:15.228Z,42.70
2022-08-12T12:33:58.770Z,42.60
2022-08-12T12:36:30.034Z,42.40
2022-08-12T12:39:00.031Z,42.30
2022-08-12T12:42:44.240Z,41.60
2022-08-12T12:44:25.863Z,41.90
2022-08-12T12:47:29.373Z,41.40
2022-08-12T12:49:56.421Z,41.10
2022-08-12T12:52:26.136Z,40.90
2022-08-12T12:54:58.687Z,41.30
2022-08-12T12:57:36.389Z,41.90
2022-08-12T13:00:17.734Z,41.80
2022-08-12T13:02:54.097Z,41.40
2022-08-12T13:05:27.742Z,41.60
2022-08-12T13:08:01.034Z,41.10
2022-08-12T13:10:37.030Z,40.10
2022-08-12T13:14:10.229Z,40.30
2022-08-12T13:15:59.442Z,39.80
2022-08-12T13:18:36.305Z,39.90
2022-08-12T13:21:15.455Z,39.70
2022-08-12T13:23:45.756Z,39.90
2022-08-12T13:26:17.484Z,39.60
2022-08-12T13:28:49.693Z,39.80
2022-08-12T13:31:27.246Z,39.50
2022-08-12T13:34:33.817Z,40.00
2022-08-12T13:36:45.803Z,39.60
2022-08-12T13:39:16.315Z,39.90
2022-08-12T13:41:45.222Z,40.00
2022-08-12T13:44:13.260Z,40.20
2022-08-12T13:46:42.097Z,39.20
2022-08-12T13:49:17.500Z,39.40
2022-08-12T13:52:03.555Z,39.20
2022-08-12T13:54:32.842Z,39.10
2022-08-12T13:57:01.421Z,39.60
2022-08-12T13:59:31.001Z,39.50
2022-08-12T14:02:18.271Z,39.80
2022-08-12T14:04:56.327Z,39.80
2022-08-12T14:07:27.419Z,39.50
2022-08-12T14:10:16.361Z,39.80
2022-08-12T14:12:54.348Z,39.60
2022-08-12T14:15:37.107Z,39.60
2022-08-12T14:18:17.496Z,39.80
2022-08-12T14:20:48.713Z,39.90
2022-08-12T14:24:04.389Z,39.70
2022-08-12T14:26:11.807Z,39.30
2022-08-12T14:28:45.145Z,39.30
2022-08-12T14:31:31.500Z,39.20
2022-08-12T14:34:00.130Z,39.20
2022-08-12T14:36:32.843Z,39.80
2022-08-12T14:39:06.049Z,40.30
2022-08-12T14:41:36.817Z,41.10
2022-08-12T14:44:59.136Z,42.10
2022-08-12T14:47:07.634Z,42.90
2022-08-12T14:50:37.640Z,42.90
2022-08-12T14:53:44.116Z,42.70
2022-08-12T14:58:05.316Z,42.10
2022-08-12T15:00:53.538Z,41.70
2022-08-12T15:03:46.707Z,41.70
2022-08-12T15:06:44.601Z,41.20
2022-08-12T15:09:11.919Z,41.30
2022-08-12T15:11:55.579Z,41.70
2022-08-12T15:14:30.690Z,42.00
2022-08-12T15:17:00.478Z,42.60
2022-08-12T15:20:30.990Z,43.20
2022-08-12T15:22:36.762Z,43.90
2022-08-12T15:25:07.695Z,44.50
2022-08-12T15:28:03.681Z,44.90
2022-08-12T15:30:30.410Z,45.40
2022-08-12T15:32:58.497Z,46.40
2022-08-12T15:35:31.216Z,46.70
2022-08-12T15:38:11.977Z,47.20
2022-08-12T15:40:46.873Z,47.30
2022-08-12T15:43:35.501Z,47.40
2022-08-12T15:46:15.269Z,47.80
2022-08-12T15:48:47.068Z,47.50
2022-08-12T15:51:58.532Z,47.80
2022-08-12T15:54:33.427Z,48.40
2022-08-12T15:57:08.026Z,48.30
2022-08-12T16:00:03.880Z,48.80
2022-08-12T16:02:29.520Z,48.40
2022-08-12T16:04:58.827Z,49.10
2022-08-12T16:07:31.278Z,48.70
2022-08-12T16:10:08.330Z,49.00
2022-08-12T16:12:42.304Z,49.30
2022-08-12T16:15:15.071Z,49.20
2022-08-12T16:18:17.700Z,50.10
2022-08-12T16:20:35.347Z,49.40
2022-08-12T16:23:21.509Z,49.60
2022-08-12T16:26:03.605Z,49.40
2022-08-12T16:28:34.400Z,49.70
2022-08-12T16:31:05.704Z,49.60
2022-08-12T16:33:59.697Z,49.90
2022-08-12T16:36:30.329Z,50.00
2022-08-12T16:39:01.206Z,50.00
2022-08-12T16:41:39.517Z,49.80
2022-08-12T16:44:08.484Z,49.40
2022-08-12T16:46:38.462Z,49.70
2022-08-12T16:49:13.170Z,50.10
2022-08-12T16:51:46.097Z,50.30
2022-08-12T16:54:17.030Z,50.30
2022-08-12T16:56:54.927Z,50.40
2022-08-12T16:59:53.548Z,50.30
2022-08-12T17:02:34.147Z,50.40
2022-08-12T17:05:05.406Z,50.60
2022-08-12T17:07:37.864Z,51.00
2022-08-12T17:10:08.178Z,51.20
2022-08-12T17:12:37.582Z,51.40
2022-08-12T17:15:41.294Z,51.60
2022-08-12T17:18:39.378Z,51.80
2022-08-12T17:20:48.309Z,52.10
2022-08-12T17:23:19.425Z,52.40
2022-08-12T17:25:50.787Z,52.40
2022-08-12T17:28:19.857Z,52.70
2022-08-12T17:30:51.224Z,52.60
2022-08-12T17:33:35.190Z,52.90
2022-08-12T17:36:05.672Z,53.20
2022-08-12T17:38:36.023Z,53.30
2022-08-12T17:41:08.284Z,53.50
2022-08-12T17:43:57.704Z,53.40
2022-08-12T17:46:33.320Z,53.30
2022-08-12T17:49:06.953Z,53.20
2022-08-12T17:52:02.903Z,53.40
2022-08-12T17:54:32.796Z,53.60
2022-08-12T17:57:16.490Z,53.80
2022-08-12T17:59:47.567Z,54.50
2022-08-12T18:02:25.466Z,54.10
2022-08-12T18:05:09.701Z,54.10
2022-08-12T18:07:39.349Z,54.20
2022-08-12T18:10:08.697Z,54.30
2022-08-12T18:12:42.749Z,54.50
2022-08-12T18:15:27.029Z,54.60
2022-08-12T18:18:16.568Z,54.70
2022-08-12T18:20:47.555Z,55.00
2022-08-12T18:23:24.210Z,55.20
2022-08-12T18:26:17.776Z,55.10
2022-08-12T18:28:48.262Z,55.50
2022-08-12T18:31:19.168Z,55.60
2022-08-12T18:33:52.730Z,56.00
2022-08-12T18:36:23.527Z,56.10
2022-08-12T18:38:56.130Z,55.90
2022-08-12T18:41:34.103Z,56.00
2022-08-12T18:44:09.289Z,56.20
2022-08-12T18:46:53.946Z,56.30
2022-08-12T18:49:31.550Z,56.40
2022-08-12T18:52:07.975Z,56.60
2022-08-12T18:54:41.599Z,56.80
2022-08-12T18:57:45.483Z,57.20
2022-08-12T19:00:09.948Z,57.40
2022-08-12T19:02:40.497Z,57.60
2022-08-12T19:05:11.412Z,58.00
2022-08-12T19:07:49.248Z,58.40
2022-08-12T19:10:23.064Z,58.60
2022-08-12T19:13:10.708Z,58.60
2022-08-12T19:15:43.104Z,59.00
2022-08-12T19:18:13.200Z,59.20
2022-08-12T19:20:42.235Z,59.60
2022-08-12T19:23:20.939Z,60.00
2022-08-12T19:26:00.048Z,60.50
2022-08-12T19:28:35.714Z,60.50
2022-08-12T19:31:44.504Z,61.50
2022-08-12T19:37:22.674Z,62.70
2022-08-12T19:40:09.950Z,63.00
2022-08-12T19:42:48.212Z,63.20
2022-08-12T19:45:17.449Z,63.50
2022-08-12T19:47:46.963Z,63.90
2022-08-12T19:50:19.904Z,64.00
2022-08-12T19:52:51.242Z,64.30
2022-08-12T19:55:27.151Z,64.30
2022-08-12T19:58:02.726Z,64.80
2022-08-12T20:00:34.533Z,64.80
2022-08-12T20:03:04.458Z,65.10
2022-08-12T20:06:08.500Z,64.90
2022-08-12T20:08:32.975Z,65.30
2022-08-12T20:12:12.013Z,65.20
2022-08-12T20:14:01.538Z,65.00
2022-08-12T20:16:50.982Z,65.40
2022-08-12T20:19:52.267Z,65.70
2022-08-12T20:22:23.408Z,65.70
2022-08-12T20:24:55.310Z,66.10
2022-08-12T20:28:03.561Z,65.90
2022-08-12T20:30:52.433Z,66.00
2022-08-12T20:33:17.358Z,66.20
2022-08-12T20:36:13.330Z,65.90
2022-08-12T20:38:39.616Z,65.40
2022-08-12T20:41:17.536Z,65.40
2022-08-12T20:43:50.342Z,64.60
2022-08-12T20:46:20.010Z,64.30
2022-08-12T20:48:55.017Z,64.30
2022-08-12T20:51:40.562Z,64.40
2022-08-12T20:54:18.546Z,64.50
2022-08-12T20:56:48.667Z,64.70
2022-08-12T20:59:21.565Z,64.70
2022-08-12T21:01:54.080Z,64.90
2022-08-12T21:04:43.705Z,65.00
2022-08-12T21:07:14.461Z,65.20
2022-08-12T21:09:48.063Z,65.40
2022-08-12T21:12:27.503Z,65.40
2022-08-12T21:15:23.305Z,65.30
2022-08-12T21:18:10.979Z,65.20
2022-08-12T21:20:53.171Z,65.10
2022-08-12T21:23:23.259Z,64.80
2022-08-12T21:25:52.644Z,64.80
2022-08-12T21:28:30.901Z,64.60
2022-08-12T21:32:38.015Z,64.60
2022-08-12T21:34:08.857Z,64.90
2022-08-12T21:36:40.344Z,65.00
2022-08-12T21:39:18.154Z,65.10
2022-08-12T21:41:51.189Z,65.20
2022-08-12T21:44:24.630Z,65.20
2022-08-12T21:47:20.062Z,65.20
2022-08-12T21:50:02.220Z,65.20
2022-08-12T21:52:34.149Z,65.40
2022-08-12T21:55:03.435Z,65.60
2022-08-12T21:57:36.062Z,65.80
2022-08-12T22:00:17.213Z,66.10
2022-08-12T22:03:04.746Z,66.40
2022-08-12T22:05:50.665Z,66.50
2022-08-12T22:08:22.362Z,66.70
2022-08-12T22:10:56.383Z,66.90
2022-08-12T22:14:07.658Z,67.20
2022-08-12T22:16:14.811Z,67.30
2022-08-12T22:18:50.401Z,67.60
2022-08-12T22:21:22.090Z,68.50
2022-08-12T22:24:04.907Z,67.70
2022-08-12T22:26:37.382Z,67.90
2022-08-12T22:29:26.786Z,68.10
2022-08-12T22:31:56.338Z,68.10
2022-08-12T22:34:29.547Z,68.10
2022-08-12T22:37:01.083Z,68.10
2022-08-12T22:39:29.202Z,68.10
2022-08-12T22:42:19.896Z,68.30
2022-08-12T22:45:05.166Z,68.20
2022-08-12T22:47:55.023Z,68.30
2022-08-12T22:50:29.758Z,68.30
2022-08-12T22:53:16.014Z,68.20
2022-08-12T22:55:59.687Z,68.20
2022-08-12T22:58:35.216Z,68.20
2022-08-12T23:01:04.079Z,68.70
2022-08-12T23:03:49.580Z,69.00
2022-08-12T23:06:24.140Z,69.10
2022-08-12T23:08:52.948Z,69.50
2022-08-12T23:11:23.689Z,69.80
2022-08-12T23:13:56.857Z,70.50
2022-08-12T23:16:31.481Z,70.90
2022-08-12T23:19:09.354Z,71.60
2022-08-12T23:22:05.650Z,71.80
2022-08-12T23:24:32.525Z,72.30
2022-08-12T23:27:21.198Z,72.50
2022-08-12T23:30:17.962Z,72.90
2022-08-12T23:32:37.904Z,73.00
2022-08-12T23:35:08.012Z,73.70
2022-08-12T23:37:47.340Z,73.90
2022-08-12T23:40:24.685Z,74.40
2022-08-12T23:42:55.146Z,74.80
2022-08-12T23:45:30.887Z,75.20
2022-08-12T23:48:00.732Z,75.40
2022-08-12T23:50:34.184Z,75.40
2022-08-12T23:53:06.507Z,75.70
2022-08-12T23:55:45.860Z,76.30
2022-08-12T23:58:22.993Z,76.40
